createdAt,value
2018-06-01T00:00:22.331Z,0.00
2018-06-01T00:01:22.246Z,0.00
2018-06-01T00:02:22.155Z,0.00
2018-06-01T00:03:22.068Z,0.00
2018-06-01T00:04:22.097Z,0.00
2018-06-01T00:05:21.889Z,0.00
2018-06-01T00:06:21.800Z,0.00
2018-06-01T00:07:21.708Z,0.00
2018-06-01T00:08:21.621Z,0.00
2018-06-01T00:09:23.135Z,0.00
2018-06-01T00:10:21.543Z,0.00
2018-06-01T00:11:21.350Z,0.00
2018-06-01T00:12:21.264Z,0.00
2018-06-01T00:13:21.176Z,0.00
2018-06-01T00:14:21.116Z,0.00
2018-06-01T00:15:21.000Z,0.00
2018-06-01T00:16:20.908Z,0.00
2018-06-01T00:17:20.829Z,0.00
2018-06-01T00:18:20.730Z,0.00
2018-06-01T00:19:20.641Z,0.00
2018-06-01T00:20:20.585Z,0.00
2018-06-01T00:21:20.464Z,0.00
2018-06-01T00:22:20.373Z,0.00
2018-06-01T00:23:20.285Z,0.00
2018-06-01T00:24:20.289Z,0.00
2018-06-01T00:25:20.138Z,0.00
2018-06-01T00:26:20.021Z,0.00
2018-06-01T00:27:19.926Z,0.00
2018-06-01T00:28:19.839Z,0.00
2018-06-01T00:29:19.748Z,0.00
2018-06-01T00:30:19.695Z,0.00
2018-06-01T00:31:19.572Z,0.00
2018-06-01T00:32:19.481Z,0.00
2018-06-01T00:33:19.389Z,0.00
2018-06-01T00:34:19.304Z,0.00
2018-06-01T00:35:19.248Z,0.00
2018-06-01T00:36:19.123Z,0.00
2018-06-01T00:37:19.035Z,0.00
2018-06-01T00:38:18.946Z,0.00
2018-06-01T00:39:18.854Z,0.00
2018-06-01T00:40:18.793Z,0.00
2018-06-01T00:41:18.678Z,0.00
2018-06-01T00:42:18.586Z,0.00
2018-06-01T00:43:18.496Z,0.00
2018-06-01T00:44:18.407Z,0.00
2018-06-01T00:45:18.345Z,0.00
2018-06-01T00:46:18.229Z,0.00
2018-06-01T00:47:18.141Z,0.00
2018-06-01T00:48:18.053Z,0.00
2018-06-01T00:49:17.977Z,0.00
2018-06-01T00:50:17.921Z,0.00
2018-06-01T00:51:17.779Z,0.00
2018-06-01T00:52:17.690Z,0.00
2018-06-01T00:53:17.604Z,0.00
2018-06-01T00:54:17.513Z,0.00
2018-06-01T00:55:17.451Z,0.00
2018-06-01T00:56:17.330Z,0.00
2018-06-01T00:57:17.246Z,0.00
2018-06-01T00:58:17.153Z,0.00
2018-06-01T00:59:17.091Z,0.00
2018-06-01T01:00:17.002Z,0.00
2018-06-01T01:01:16.886Z,0.00
2018-06-01T01:02:16.795Z,0.00
2018-06-01T01:03:16.705Z,0.00
2018-06-01T01:04:16.617Z,0.00
2018-06-01T01:05:16.560Z,0.00
2018-06-01T01:06:16.438Z,0.00
2018-06-01T01:07:16.382Z,0.00
2018-06-01T01:08:16.257Z,0.00
2018-06-01T01:09:16.190Z,0.00
2018-06-01T01:10:16.079Z,0.00
2018-06-01T01:11:16.023Z,0.00
2018-06-01T01:12:15.899Z,0.00
2018-06-01T01:13:15.812Z,0.00
2018-06-01T01:14:15.723Z,0.00
2018-06-01T01:15:15.635Z,0.00
2018-06-01T01:16:15.571Z,0.00
2018-06-01T01:17:15.451Z,0.00
2018-06-01T01:18:15.363Z,0.00
2018-06-01T01:19:15.271Z,0.00
2018-06-01T01:20:15.191Z,0.00
2018-06-01T01:21:15.127Z,0.00
2018-06-01T01:22:15.005Z,0.00
2018-06-01T01:23:14.913Z,0.00
2018-06-01T01:24:15.602Z,0.00
2018-06-01T01:25:14.736Z,0.00
2018-06-01T01:26:14.676Z,0.00
2018-06-01T01:27:14.560Z,0.00
2018-06-01T01:28:14.467Z,0.00
2018-06-01T01:29:14.379Z,0.00
2018-06-01T01:30:14.291Z,0.00
2018-06-01T01:31:14.226Z,0.00
2018-06-01T01:32:14.112Z,0.00
2018-06-01T01:33:14.021Z,0.00
2018-06-01T01:34:13.936Z,0.00
2018-06-01T01:35:13.844Z,0.00
2018-06-01T01:36:13.786Z,0.00
2018-06-01T01:37:13.663Z,0.00
2018-06-01T01:38:13.577Z,0.00
2018-06-01T01:39:13.484Z,0.00
2018-06-01T01:40:13.398Z,0.00
2018-06-01T01:41:13.333Z,0.00
2018-06-01T01:42:13.303Z,0.00
2018-06-01T01:43:13.137Z,0.00
2018-06-01T01:44:13.037Z,0.00
2018-06-01T01:45:12.949Z,0.00
2018-06-01T01:46:12.891Z,0.00
2018-06-01T01:47:12.771Z,0.00
2018-06-01T01:48:12.680Z,0.00
2018-06-01T01:49:12.678Z,0.00
2018-06-01T01:50:12.499Z,0.00
2018-06-01T01:51:12.443Z,0.00
2018-06-01T01:52:12.322Z,0.00
2018-06-01T01:53:12.234Z,0.00
2018-06-01T01:54:12.149Z,0.00
2018-06-01T01:55:12.056Z,0.00
2018-06-01T01:56:12.651Z,0.00
2018-06-01T01:57:11.877Z,0.00
2018-06-01T01:58:11.788Z,0.00
2018-06-01T01:59:11.697Z,0.00
2018-06-01T02:00:11.611Z,0.00
2018-06-01T02:01:11.552Z,0.00
2018-06-01T02:02:11.431Z,0.00
2018-06-01T02:03:11.462Z,0.00
2018-06-01T02:04:11.266Z,0.00
2018-06-01T02:05:11.166Z,0.00
2018-06-01T02:06:11.101Z,0.00
2018-06-01T02:07:10.985Z,0.00
2018-06-01T02:08:10.899Z,0.00
2018-06-01T02:09:10.812Z,0.00
2018-06-01T02:10:10.812Z,0.00
2018-06-01T02:11:10.656Z,0.00
2018-06-01T02:12:10.539Z,0.00
2018-06-01T02:13:10.451Z,0.00
2018-06-01T02:14:10.360Z,0.00
2018-06-01T02:15:10.273Z,0.00
2018-06-01T02:16:11.114Z,0.00
2018-06-01T02:17:10.214Z,0.00
2018-06-01T02:18:10.003Z,0.00
2018-06-01T02:19:09.913Z,0.00
2018-06-01T02:20:09.825Z,0.00
2018-06-01T02:21:09.737Z,0.00
2018-06-01T02:22:09.678Z,0.00
2018-06-01T02:23:09.559Z,0.00
2018-06-01T02:24:09.556Z,0.00
2018-06-01T02:25:09.380Z,4.00
2018-06-01T02:26:09.292Z,4.00
2018-06-01T02:27:09.232Z,4.00
2018-06-01T02:28:09.111Z,0.00
2018-06-01T02:29:09.023Z,4.00
2018-06-01T02:30:08.933Z,4.00
2018-06-01T02:31:08.935Z,4.00
2018-06-01T02:32:08.785Z,4.00
2018-06-01T02:33:08.666Z,4.00
2018-06-01T02:34:08.575Z,8.00
2018-06-01T02:35:08.489Z,8.00
2018-06-01T02:36:08.400Z,8.00
2018-06-01T02:37:08.345Z,8.00
2018-06-01T02:38:08.313Z,8.00
2018-06-01T02:39:08.133Z,12.00
2018-06-01T02:40:08.042Z,12.00
2018-06-01T02:41:07.954Z,16.00
2018-06-01T02:42:07.896Z,12.00
2018-06-01T02:43:09.674Z,12.00
2018-06-01T02:44:07.688Z,12.00
2018-06-01T02:45:08.175Z,16.00
2018-06-01T02:46:07.508Z,12.00
2018-06-01T02:47:07.448Z,12.00
2018-06-01T02:48:07.331Z,12.00
2018-06-01T02:49:07.242Z,12.00
2018-06-01T02:50:07.152Z,12.00
2018-06-01T02:51:07.062Z,12.00
2018-06-01T02:52:07.101Z,8.00
2018-06-01T02:53:06.884Z,4.00
2018-06-01T02:54:06.800Z,8.00
2018-06-01T02:55:06.705Z,8.00
2018-06-01T02:56:06.616Z,8.00
2018-06-01T02:57:06.559Z,12.00
2018-06-01T02:58:06.441Z,16.00
2018-06-01T02:59:06.444Z,20.00
2018-06-01T03:00:06.260Z,28.00
2018-06-01T03:01:06.178Z,40.00
2018-06-01T03:02:06.114Z,48.00
2018-06-01T03:03:05.994Z,64.00
2018-06-01T03:04:05.906Z,72.00
2018-06-01T03:05:05.819Z,76.00
2018-06-01T03:06:05.819Z,72.00
2018-06-01T03:07:05.667Z,60.00
2018-06-01T03:08:05.551Z,60.00
2018-06-01T03:09:05.459Z,68.00
2018-06-01T03:10:05.370Z,84.00
2018-06-01T03:11:05.282Z,108.00
2018-06-01T03:12:05.222Z,128.00
2018-06-01T03:13:05.105Z,148.00
2018-06-01T03:14:05.014Z,168.00
2018-06-01T03:15:04.924Z,196.00
2018-06-01T03:16:04.844Z,224.00
2018-06-01T03:17:04.748Z,260.00
2018-06-01T03:18:04.689Z,300.00
2018-06-01T03:19:04.567Z,344.00
2018-06-01T03:20:04.481Z,392.00
2018-06-01T03:21:04.392Z,436.00
2018-06-01T03:22:04.300Z,484.00
2018-06-01T03:23:04.240Z,520.00
2018-06-01T03:24:04.121Z,556.00
2018-06-01T03:25:04.033Z,592.00
2018-06-01T03:26:03.942Z,624.00
2018-06-01T03:27:03.861Z,652.00
2018-06-01T03:28:03.798Z,680.00
2018-06-01T03:29:03.675Z,704.00
2018-06-01T03:30:03.587Z,732.00
2018-06-01T03:31:03.501Z,764.00
2018-06-01T03:32:03.408Z,792.00
2018-06-01T03:33:03.348Z,824.00
2018-06-01T03:34:03.231Z,880.00
2018-06-01T03:35:03.142Z,948.00
2018-06-01T03:36:03.051Z,1004.00
2018-06-01T03:37:02.963Z,1068.00
2018-06-01T03:38:02.905Z,1128.00
2018-06-01T03:39:02.786Z,1188.00
2018-06-01T03:40:02.699Z,1260.00
2018-06-01T03:41:02.607Z,1332.00
2018-06-01T03:42:02.516Z,1408.00
2018-06-01T03:43:02.458Z,1484.00
2018-06-01T03:44:02.338Z,1564.00
2018-06-01T03:45:02.248Z,1640.00
2018-06-01T03:46:02.161Z,1716.00
2018-06-01T03:47:02.071Z,1792.00
2018-06-01T03:48:02.013Z,1864.00
2018-06-01T03:49:01.899Z,1932.00
2018-06-01T03:50:01.812Z,1996.00
2018-06-01T03:51:01.761Z,2064.00
2018-06-01T03:52:01.631Z,2136.00
2018-06-01T03:53:01.570Z,2208.00
2018-06-01T03:54:01.448Z,2292.00
2018-06-01T03:55:01.357Z,2388.00
2018-06-01T03:56:02.699Z,2488.00
2018-06-01T03:57:01.183Z,2596.00
2018-06-01T03:58:01.123Z,2700.00
2018-06-01T03:59:01.002Z,2808.00
2018-06-01T04:00:00.914Z,2924.00
2018-06-01T04:01:00.920Z,3076.00
2018-06-01T04:02:00.734Z,3272.00
2018-06-01T04:03:00.680Z,3576.00
2018-06-01T04:04:00.561Z,3900.00
2018-06-01T04:05:00.471Z,4160.00
2018-06-01T04:06:00.380Z,4356.00
2018-06-01T04:07:00.293Z,4456.00
2018-06-01T04:08:01.197Z,4440.00
2018-06-01T04:09:00.113Z,4384.00
2018-06-01T04:10:00.023Z,4344.00
2018-06-01T04:10:59.933Z,4356.00
2018-06-01T04:11:59.848Z,4468.00
2018-06-01T04:12:59.786Z,4720.00
2018-06-01T04:13:59.670Z,5176.00
2018-06-01T04:14:59.698Z,5684.00
2018-06-01T04:15:59.487Z,6092.00
2018-06-01T04:16:59.401Z,6412.00
2018-06-01T04:17:59.315Z,6700.00
2018-06-01T04:18:59.255Z,7020.00
2018-06-01T04:19:59.138Z,7352.00
2018-06-01T04:20:59.045Z,7560.00
2018-06-01T04:21:58.958Z,7668.00
2018-06-01T04:22:58.870Z,7836.00
2018-06-01T04:23:58.809Z,7924.00
2018-06-01T04:24:58.690Z,7908.00
2018-06-01T04:25:58.609Z,7624.00
2018-06-01T04:26:58.516Z,7228.00
2018-06-01T04:27:58.425Z,6924.00
2018-06-01T04:28:58.460Z,6700.00
2018-06-01T04:29:58.249Z,6508.00
2018-06-01T04:30:58.163Z,6404.00
2018-06-01T04:31:58.072Z,6408.00
2018-06-01T04:32:57.983Z,6560.00
2018-06-01T04:33:57.924Z,6792.00
2018-06-01T04:34:57.808Z,6832.00
2018-06-01T04:35:57.722Z,6728.00
2018-06-01T04:36:57.637Z,6600.00
2018-06-01T04:37:57.547Z,6436.00
2018-06-01T04:38:57.490Z,6356.00
2018-06-01T04:39:57.373Z,6404.00
2018-06-01T04:40:58.153Z,6444.00
2018-06-01T04:41:57.195Z,6572.00
2018-06-01T04:42:57.211Z,6896.00
2018-06-01T04:43:57.051Z,7280.00
2018-06-01T04:44:56.931Z,7604.00
2018-06-01T04:45:56.845Z,7812.00
2018-06-01T04:46:56.760Z,7820.00
2018-06-01T04:47:56.669Z,7640.00
2018-06-01T04:48:56.613Z,7612.00
2018-06-01T04:49:56.586Z,7872.00
2018-06-01T04:50:56.410Z,8200.00
2018-06-01T04:51:56.322Z,8664.00
2018-06-01T04:52:56.232Z,9180.00
2018-06-01T04:53:56.180Z,9828.00
2018-06-01T04:54:56.059Z,10020.00
2018-06-01T04:55:55.974Z,9744.00
2018-06-01T04:56:55.980Z,9024.00
2018-06-01T04:57:55.800Z,8304.00
2018-06-01T04:58:55.739Z,7728.00
2018-06-01T04:59:55.624Z,7444.00
2018-06-01T05:00:55.536Z,7656.00
2018-06-01T05:01:55.449Z,8348.00
2018-06-01T05:02:55.361Z,9204.00
2018-06-01T05:03:55.409Z,10680.00
2018-06-01T05:04:55.190Z,12528.00
2018-06-01T05:05:55.102Z,13112.00
2018-06-01T05:06:55.015Z,12560.00
2018-06-01T05:07:54.929Z,11432.00
2018-06-01T05:08:54.871Z,10596.00
2018-06-01T05:09:55.662Z,10604.00
2018-06-01T05:10:54.763Z,11460.00
2018-06-01T05:11:54.582Z,12496.00
2018-06-01T05:12:54.496Z,13368.00
2018-06-01T05:13:54.439Z,13896.00
2018-06-01T05:14:54.321Z,14384.00
2018-06-01T05:15:54.236Z,13836.00
2018-06-01T05:16:54.149Z,12736.00
2018-06-01T05:17:54.154Z,11372.00
2018-06-01T05:18:53.975Z,10604.00
2018-06-01T05:19:53.916Z,10148.00
2018-06-01T05:20:53.803Z,9812.00
2018-06-01T05:21:53.719Z,9236.00
2018-06-01T05:22:53.631Z,7724.00
2018-06-01T05:23:53.546Z,5748.00
2018-06-01T05:24:54.168Z,4620.00
2018-06-01T05:25:53.371Z,4000.00
2018-06-01T05:26:53.287Z,3276.00
2018-06-01T05:27:53.199Z,3300.00
2018-06-01T05:28:53.112Z,3296.00
2018-06-01T05:29:53.053Z,5152.00
2018-06-01T05:30:52.940Z,7372.00
2018-06-01T05:31:52.944Z,7812.00
2018-06-01T05:32:52.766Z,7608.00
2018-06-01T05:33:52.679Z,6424.00
2018-06-01T05:34:52.623Z,4900.00
2018-06-01T05:35:52.508Z,3764.00
2018-06-01T05:36:52.443Z,3476.00
2018-06-01T05:37:52.335Z,4664.00
2018-06-01T05:38:53.220Z,5928.00
2018-06-01T05:39:52.185Z,7260.00
2018-06-01T05:40:52.073Z,8656.00
2018-06-01T05:41:51.985Z,9444.00
2018-06-01T05:42:51.894Z,9328.00
2018-06-01T05:43:51.807Z,7756.00
2018-06-01T05:44:51.747Z,6452.00
2018-06-01T05:45:51.730Z,6024.00
2018-06-01T05:46:51.543Z,6388.00
2018-06-01T05:47:51.458Z,7320.00
2018-06-01T05:48:51.370Z,8380.00
2018-06-01T05:49:51.317Z,9308.00
2018-06-01T05:50:51.195Z,9660.00
2018-06-01T05:51:51.108Z,9044.00
2018-06-01T05:52:51.021Z,8300.00
2018-06-01T05:53:50.933Z,7724.00
2018-06-01T05:54:50.878Z,7396.00
2018-06-01T05:55:50.759Z,7280.00
2018-06-01T05:56:50.672Z,7380.00
2018-06-01T05:57:50.585Z,7660.00
2018-06-01T05:58:50.504Z,8160.00
2018-06-01T05:59:50.443Z,8520.00
2018-06-01T06:00:50.324Z,8368.00
2018-06-01T06:01:50.236Z,7844.00
2018-06-01T06:02:50.150Z,7356.00
2018-06-01T06:03:50.061Z,7116.00
2018-06-01T06:04:50.727Z,7032.00
2018-06-01T06:05:50.010Z,7196.00
2018-06-01T06:06:49.799Z,7536.00
2018-06-01T06:07:49.715Z,7916.00
2018-06-01T06:08:49.629Z,8236.00
2018-06-01T06:09:49.588Z,8304.00
2018-06-01T06:10:49.456Z,8200.00
2018-06-01T06:11:49.366Z,7876.00
2018-06-01T06:12:49.281Z,7464.00
2018-06-01T06:13:49.193Z,6848.00
2018-06-01T06:14:49.134Z,5984.00
2018-06-01T06:15:49.020Z,5160.00
2018-06-01T06:16:48.932Z,4660.00
2018-06-01T06:17:48.884Z,4548.00
2018-06-01T06:18:48.759Z,4748.00
2018-06-01T06:19:48.710Z,5136.00
2018-06-01T06:20:48.586Z,5440.00
2018-06-01T06:21:48.501Z,5684.00
2018-06-01T06:22:48.416Z,6012.00
2018-06-01T06:23:48.325Z,6372.00
2018-06-01T06:24:48.241Z,6956.00
2018-06-01T06:25:48.183Z,7640.00
2018-06-01T06:26:48.062Z,8440.00
2018-06-01T06:27:47.976Z,9352.00
2018-06-01T06:28:47.891Z,10380.00
2018-06-01T06:29:47.805Z,10816.00
2018-06-01T06:30:47.747Z,10900.00
2018-06-01T06:31:47.632Z,10908.00
2018-06-01T06:32:47.543Z,10800.00
2018-06-01T06:33:47.457Z,10620.00
2018-06-01T06:34:47.376Z,10728.00
2018-06-01T06:35:47.312Z,11024.00
2018-06-01T06:36:47.200Z,10884.00
2018-06-01T06:37:47.131Z,10964.00
2018-06-01T06:38:47.028Z,11708.00
2018-06-01T06:39:46.941Z,12720.00
2018-06-01T06:40:46.881Z,13176.00
2018-06-01T06:41:46.765Z,12932.00
2018-06-01T06:42:46.678Z,12820.00
2018-06-01T06:43:46.594Z,12692.00
2018-06-01T06:44:46.503Z,12660.00
2018-06-01T06:45:46.450Z,13140.00
2018-06-01T06:46:46.333Z,13992.00
2018-06-01T06:47:46.247Z,15128.00
2018-06-01T06:48:46.157Z,16368.00
2018-06-01T06:49:46.073Z,17068.00
2018-06-01T06:50:46.019Z,18176.00
2018-06-01T06:51:45.902Z,25248.00
2018-06-01T06:52:45.813Z,45088.00
2018-06-01T06:53:45.733Z,47392.00
2018-06-01T06:54:45.643Z,39968.00
2018-06-01T06:55:45.585Z,25088.00
2018-06-01T06:56:45.470Z,42240.00
2018-06-01T06:57:46.194Z,40544.00
2018-06-01T06:58:45.299Z,46944.00
2018-06-01T06:59:45.752Z,28896.00
2018-06-01T07:00:45.158Z,46944.00
2018-06-01T07:01:45.046Z,48192.00
2018-06-01T07:02:45.006Z,50400.00
2018-06-01T07:03:44.870Z,56256.00
2018-06-01T07:04:44.787Z,58176.00
2018-06-01T07:05:44.737Z,55648.00
2018-06-01T07:06:44.621Z,55456.00
2018-06-01T07:07:44.536Z,55392.00
2018-06-01T07:08:44.450Z,55072.00
2018-06-01T07:09:45.251Z,55808.00
2018-06-01T07:10:44.328Z,53632.00
2018-06-01T07:11:44.208Z,52896.00
2018-06-01T07:12:44.118Z,53056.00
2018-06-01T07:13:44.035Z,54688.00
2018-06-01T07:14:43.954Z,28416.00
2018-06-01T07:15:43.905Z,27968.00
2018-06-01T07:16:43.788Z,26336.00
2018-06-01T07:17:43.709Z,28768.00
2018-06-01T07:18:43.627Z,51456.00
2018-06-01T07:19:43.539Z,59520.00
2018-06-01T07:20:43.490Z,63200.00
2018-06-01T07:21:43.374Z,64864.00
2018-06-01T07:22:43.294Z,60512.00
2018-06-01T07:23:43.212Z,61824.00
2018-06-01T07:24:43.129Z,58592.00
2018-06-01T07:25:43.053Z,39584.00
2018-06-01T07:26:43.014Z,27360.00
2018-06-01T07:27:42.947Z,32288.00
2018-06-01T07:28:42.805Z,26112.00
2018-06-01T07:29:42.724Z,24640.00
2018-06-01T07:30:42.672Z,25536.00
2018-06-01T07:31:42.569Z,25760.00
2018-06-01T07:32:42.481Z,26624.00
2018-06-01T07:33:42.400Z,29440.00
2018-06-01T07:34:43.250Z,29376.00
2018-06-01T07:35:42.241Z,54304.00
2018-06-01T07:36:42.194Z,34272.00
2018-06-01T07:37:42.081Z,69248.00
2018-06-01T07:38:42.037Z,71104.00
2018-06-01T07:39:41.924Z,73344.00
2018-06-01T07:40:41.838Z,66304.00
2018-06-01T07:41:41.788Z,54272.00
2018-06-01T07:42:41.677Z,71904.00
2018-06-01T07:43:41.596Z,35232.00
2018-06-01T07:44:41.512Z,41344.00
2018-06-01T07:45:41.435Z,51136.00
2018-06-01T07:46:41.387Z,62880.00
2018-06-01T07:47:41.274Z,68256.00
2018-06-01T07:48:41.194Z,73728.00
2018-06-01T07:49:41.114Z,75488.00
2018-06-01T07:50:41.030Z,80512.00
2018-06-01T07:51:40.984Z,80352.00
2018-06-01T07:52:40.874Z,80096.00
2018-06-01T07:53:40.797Z,78016.00
2018-06-01T07:54:40.717Z,43392.00
2018-06-01T07:55:40.637Z,40288.00
2018-06-01T07:56:40.588Z,66752.00
2018-06-01T07:57:40.478Z,66400.00
2018-06-01T07:58:40.400Z,65920.00
2018-06-01T07:59:40.318Z,59840.00
2018-06-01T08:00:40.240Z,42400.00
2018-06-01T08:01:40.194Z,34112.00
2018-06-01T08:02:40.720Z,28704.00
2018-06-01T08:03:40.053Z,27552.00
2018-06-01T08:04:39.926Z,30656.00
2018-06-01T08:05:40.132Z,32288.00
2018-06-01T08:06:39.794Z,32672.00
2018-06-01T08:07:39.685Z,39232.00
2018-06-01T08:08:39.611Z,51616.00
2018-06-01T08:09:39.528Z,37536.00
2018-06-01T08:10:39.455Z,70144.00
2018-06-01T08:11:39.402Z,34816.00
2018-06-01T08:12:39.382Z,46816.00
2018-06-01T08:13:39.212Z,31520.00
2018-06-01T08:14:39.135Z,26400.00
2018-06-01T08:15:39.053Z,24512.00
2018-06-01T08:16:39.003Z,23552.00
2018-06-01T08:17:38.893Z,23072.00
2018-06-01T08:18:38.820Z,22784.00
2018-06-01T08:19:38.829Z,22752.00
2018-06-01T08:20:38.661Z,22368.00
2018-06-01T08:21:38.613Z,21728.00
2018-06-01T08:22:38.501Z,21376.00
2018-06-01T08:23:38.422Z,21600.00
2018-06-01T08:24:38.340Z,21504.00
2018-06-01T08:25:38.262Z,21024.00
2018-06-01T08:26:38.307Z,20704.00
2018-06-01T08:27:38.100Z,21504.00
2018-06-01T08:28:38.023Z,32352.00
2018-06-01T08:29:37.943Z,30080.00
2018-06-01T08:30:37.861Z,24512.00
2018-06-01T08:31:37.810Z,22176.00
2018-06-01T08:32:37.726Z,21056.00
2018-06-01T08:33:37.711Z,20064.00
2018-06-01T08:34:37.545Z,18912.00
2018-06-01T08:35:37.460Z,17888.00
2018-06-01T08:36:37.384Z,17184.00
2018-06-01T08:37:37.336Z,16620.00
2018-06-01T08:38:37.223Z,16300.00
2018-06-01T08:39:37.137Z,15892.00
2018-06-01T08:40:37.735Z,15336.00
2018-06-01T08:41:36.979Z,14860.00
2018-06-01T08:42:36.921Z,14380.00
2018-06-01T08:43:36.813Z,13976.00
2018-06-01T08:44:36.732Z,13608.00
2018-06-01T08:45:36.652Z,13276.00
2018-06-01T08:46:36.616Z,13124.00
2018-06-01T08:47:36.610Z,13052.00
2018-06-01T08:48:36.406Z,13096.00
2018-06-01T08:49:36.327Z,13288.00
2018-06-01T08:50:36.243Z,13572.00
2018-06-01T08:51:36.162Z,13948.00
2018-06-01T08:52:36.172Z,14372.00
2018-06-01T08:53:36.799Z,14828.00
2018-06-01T08:54:35.918Z,15372.00
2018-06-01T08:55:36.742Z,15956.00
2018-06-01T08:56:35.752Z,16596.00
2018-06-01T08:57:35.699Z,17440.00
2018-06-01T08:58:35.585Z,18176.00
2018-06-01T08:59:35.502Z,19072.00
2018-06-01T09:00:35.420Z,20000.00
2018-06-01T09:01:35.338Z,20992.00
2018-06-01T09:02:35.285Z,22048.00
2018-06-01T09:03:35.744Z,23264.00
2018-06-01T09:04:35.111Z,24512.00
2018-06-01T09:05:35.007Z,25728.00
2018-06-01T09:06:34.920Z,26560.00
2018-06-01T09:07:34.871Z,27072.00
2018-06-01T09:08:34.759Z,27392.00
2018-06-01T09:09:34.673Z,27488.00
2018-06-01T09:10:34.596Z,27552.00
2018-06-01T09:11:34.508Z,27648.00
2018-06-01T09:12:36.284Z,27936.00
2018-06-01T09:13:34.338Z,28320.00
2018-06-01T09:14:34.377Z,29024.00
2018-06-01T09:15:34.171Z,30144.00
2018-06-01T09:16:34.088Z,31904.00
2018-06-01T09:17:34.036Z,34528.00
2018-06-01T09:18:33.923Z,38432.00
2018-06-01T09:19:33.836Z,52480.00
2018-06-01T09:20:33.754Z,97024.00
2018-06-01T09:21:33.669Z,109696.00
2018-06-01T09:22:33.612Z,99168.00
2018-06-01T09:23:33.501Z,87264.00
2018-06-01T09:24:33.417Z,93152.00
2018-06-01T09:25:33.335Z,114336.00
2018-06-01T09:26:33.250Z,124928.00
2018-06-01T09:27:33.196Z,122048.00
2018-06-01T09:28:33.082Z,99776.00
2018-06-01T09:29:33.003Z,52800.00
2018-06-01T09:30:33.753Z,74528.00
2018-06-01T09:31:32.835Z,80192.00
2018-06-01T09:32:32.783Z,81088.00
2018-06-01T09:33:32.672Z,70048.00
2018-06-01T09:34:32.588Z,74976.00
2018-06-01T09:35:32.512Z,58496.00
2018-06-01T09:36:32.427Z,84736.00
2018-06-01T09:37:32.373Z,89216.00
2018-06-01T09:38:32.258Z,95040.00
2018-06-01T09:39:32.184Z,98208.00
2018-06-01T09:40:32.097Z,99488.00
2018-06-01T09:41:32.105Z,98976.00
2018-06-01T09:42:31.935Z,98912.00
2018-06-01T09:43:31.880Z,101984.00
2018-06-01T09:44:31.768Z,85312.00
2018-06-01T09:45:31.690Z,86176.00
2018-06-01T09:46:31.606Z,114272.00
2018-06-01T09:47:31.527Z,147200.00
2018-06-01T09:48:31.480Z,156768.00
2018-06-01T09:49:32.260Z,162720.00
2018-06-01T09:50:31.281Z,106816.00
2018-06-01T09:51:31.203Z,219040.00
2018-06-01T09:52:31.124Z,154848.00
2018-06-01T09:53:31.072Z,163744.00
2018-06-01T09:54:30.961Z,147552.00
2018-06-01T09:55:30.934Z,121184.00
2018-06-01T09:56:30.799Z,114240.00
2018-06-01T09:57:30.725Z,105536.00
2018-06-01T09:58:30.669Z,102048.00
2018-06-01T09:59:30.562Z,100704.00
2018-06-01T10:00:30.493Z,99456.00
2018-06-01T10:01:30.399Z,101920.00
2018-06-01T10:02:30.414Z,107648.00
2018-06-01T10:03:30.273Z,108896.00
2018-06-01T10:04:30.169Z,114368.00
2018-06-01T10:05:30.087Z,120928.00
2018-06-01T10:06:30.009Z,49280.00
2018-06-01T10:07:30.820Z,135264.00
2018-06-01T10:08:29.954Z,122400.00
2018-06-01T10:09:29.773Z,128448.00
2018-06-01T10:10:29.694Z,123264.00
2018-06-01T10:11:29.618Z,107328.00
2018-06-01T10:12:30.325Z,36832.00
2018-06-01T10:13:29.520Z,33536.00
2018-06-01T10:14:29.383Z,44992.00
2018-06-01T10:15:29.351Z,65024.00
2018-06-01T10:16:29.225Z,96992.00
2018-06-01T10:17:29.148Z,141760.00
2018-06-01T10:18:29.102Z,120704.00
2018-06-01T10:19:28.992Z,114624.00
2018-06-01T10:20:28.912Z,118752.00
2018-06-01T10:21:28.837Z,105056.00
2018-06-01T10:22:28.757Z,104896.00
2018-06-01T10:23:28.715Z,110464.00
2018-06-01T10:24:28.599Z,131360.00
2018-06-01T10:25:28.533Z,41632.00
2018-06-01T10:26:28.469Z,103968.00
2018-06-01T10:27:28.364Z,141824.00
2018-06-01T10:28:28.321Z,36704.00
2018-06-01T10:29:28.303Z,31296.00
2018-06-01T10:30:28.131Z,40384.00
2018-06-01T10:31:28.055Z,55648.00
2018-06-01T10:32:27.976Z,66784.00
2018-06-01T10:33:27.928Z,85344.00
2018-06-01T10:34:27.821Z,61920.00
2018-06-01T10:35:27.743Z,74560.00
2018-06-01T10:36:27.797Z,104960.00
2018-06-01T10:37:27.590Z,131744.00
2018-06-01T10:38:27.513Z,121824.00
2018-06-01T10:39:27.487Z,98912.00
2018-06-01T10:40:27.355Z,38016.00
2018-06-01T10:41:27.781Z,31456.00
2018-06-01T10:42:27.199Z,34208.00
2018-06-01T10:43:27.782Z,137312.00
2018-06-01T10:44:27.073Z,133952.00
2018-06-01T10:45:26.964Z,106080.00
2018-06-01T10:46:26.888Z,25984.00
2018-06-01T10:47:26.808Z,25280.00
2018-06-01T10:48:26.732Z,26592.00
2018-06-01T10:49:26.683Z,30592.00
2018-06-01T10:50:26.572Z,37024.00
2018-06-01T10:51:27.285Z,87968.00
2018-06-01T10:52:26.415Z,41472.00
2018-06-01T10:53:26.333Z,32800.00
2018-06-01T10:54:26.290Z,32864.00
2018-06-01T10:55:26.178Z,104064.00
2018-06-01T10:56:26.097Z,117792.00
2018-06-01T10:57:26.020Z,123232.00
2018-06-01T10:58:25.939Z,73600.00
2018-06-01T10:59:25.894Z,23328.00
2018-06-01T11:00:25.781Z,19520.00
2018-06-01T11:01:25.704Z,18400.00
2018-06-01T11:02:25.625Z,21216.00
2018-06-01T11:03:25.548Z,27776.00
2018-06-01T11:04:25.497Z,32448.00
2018-06-01T11:05:25.391Z,34080.00
2018-06-01T11:06:25.306Z,48064.00
2018-06-01T11:07:25.227Z,45344.00
2018-06-01T11:08:25.146Z,38304.00
2018-06-01T11:09:25.098Z,119488.00
2018-06-01T11:10:24.991Z,29152.00
2018-06-01T11:11:24.909Z,26944.00
2018-06-01T11:12:24.829Z,25728.00
2018-06-01T11:13:24.752Z,26048.00
2018-06-01T11:14:24.719Z,29024.00
2018-06-01T11:15:24.590Z,30016.00
2018-06-01T11:16:24.508Z,31488.00
2018-06-01T11:17:24.431Z,102656.00
2018-06-01T11:18:24.351Z,98272.00
2018-06-01T11:19:24.298Z,146816.00
2018-06-01T11:20:24.197Z,128096.00
2018-06-01T11:21:24.147Z,39296.00
2018-06-01T11:22:24.027Z,35808.00
2018-06-01T11:23:23.948Z,33984.00
2018-06-01T11:24:23.901Z,33088.00
2018-06-01T11:25:23.788Z,76704.00
2018-06-01T11:26:23.711Z,28288.00
2018-06-01T11:27:23.627Z,42432.00
2018-06-01T11:28:23.548Z,32672.00
2018-06-01T11:29:23.499Z,34496.00
2018-06-01T11:30:23.385Z,40352.00
2018-06-01T11:31:23.397Z,39040.00
2018-06-01T11:32:23.261Z,38464.00
2018-06-01T11:33:23.146Z,36768.00
2018-06-01T11:34:23.095Z,36224.00
2018-06-01T11:35:22.984Z,38176.00
2018-06-01T11:36:22.905Z,71680.00
2018-06-01T11:37:22.826Z,96064.00
2018-06-01T11:38:22.841Z,127328.00
2018-06-01T11:39:22.692Z,37792.00
2018-06-01T11:40:22.582Z,36864.00
2018-06-01T11:41:22.501Z,38752.00
2018-06-01T11:42:22.417Z,40128.00
2018-06-01T11:43:22.341Z,44000.00
2018-06-01T11:44:22.258Z,101856.00
2018-06-01T11:45:22.303Z,55936.00
2018-06-01T11:46:22.096Z,86208.00
2018-06-01T11:47:22.015Z,48672.00
2018-06-01T11:48:21.935Z,32768.00
2018-06-01T11:49:21.857Z,34080.00
2018-06-01T11:50:21.803Z,80736.00
2018-06-01T11:51:21.754Z,39488.00
2018-06-01T11:52:21.701Z,89536.00
2018-06-01T11:53:21.533Z,95040.00
2018-06-01T11:54:21.452Z,98240.00
2018-06-01T11:55:21.399Z,95808.00
2018-06-01T11:56:21.291Z,83936.00
2018-06-01T11:57:21.221Z,95840.00
2018-06-01T11:58:21.128Z,108000.00
2018-06-01T11:59:21.139Z,111040.00
2018-06-01T12:00:21.003Z,103360.00
2018-06-01T12:01:20.892Z,110752.00
2018-06-01T12:02:20.808Z,112960.00
2018-06-01T12:03:20.731Z,56096.00
2018-06-01T12:04:20.649Z,113024.00
2018-06-01T12:05:20.606Z,29376.00
2018-06-01T12:06:20.613Z,25920.00
2018-06-01T12:07:20.411Z,25152.00
2018-06-01T12:08:20.334Z,25184.00
2018-06-01T12:09:20.253Z,24544.00